KLM1271 EHAM-EKCH
Flight info
| Callsign | KLM1271 |
|---|---|
| Flight time | 0h 59m |
| Altitude | 37000 |
| Route | ANDIK N873 JUIST DCT DOSUR P729 TUDLO |
| Aircraft | E190/M-SDE3GILORVW/S |
Departure
| Time | 2026-04-30 18:35 |
|---|---|
| Airport | Amsterdam Airport Schiphol (EHAM) |
Arrival
| Time | 2026-04-30 19:34 |
|---|---|
| Airport | Copenhagen Kastrup Airport (EKCH) |
| Time | Latitude | Longitude | Altitude | Speed | Heading |
|---|---|---|---|---|---|
| 2026-04-30 17:47 | 52.30038 | 4.75521 | 1 ft | 0 kts | 238° |
| 2026-04-30 18:18 | 52.30038 | 4.75522 | 1 ft | 0 kts | 238° |
| 2026-04-30 18:18 | 52.30044 | 4.75538 | 1 ft | 2 kts | 238° |
| 2026-04-30 18:18 | 52.30051 | 4.75558 | 1 ft | 2 kts | 229° |
| 2026-04-30 18:19 | 52.30064 | 4.75571 | 1 ft | 2 kts | 194° |
| 2026-04-30 18:19 | 52.30079 | 4.75571 | 1 ft | 2 kts | 163° |
| 2026-04-30 18:19 | 52.30092 | 4.75559 | 2 ft | 2 kts | 142° |
| 2026-04-30 18:19 | 52.30104 | 4.75547 | 2 ft | 2 kts | 150° |
| 2026-04-30 18:20 | 52.30109 | 4.75542 | 3 ft | 0 kts | 148° |
| 2026-04-30 18:24 | 52.30103 | 4.75548 | 2 ft | 3 kts | 148° |
| 2026-04-30 18:24 | 52.30088 | 4.75563 | 2 ft | 6 kts | 148° |
| 2026-04-30 18:24 | 52.30069 | 4.75582 | 1 ft | 8 kts | 148° |
| 2026-04-30 18:25 | 52.30027 | 4.75626 | 0 ft | 11 kts | 148° |
| 2026-04-30 18:25 | 52.29962 | 4.75642 | -1 ft | 6 kts | 222° |
| 2026-04-30 18:25 | 52.29930 | 4.75571 | -1 ft | 8 kts | 238° |
| 2026-04-30 18:26 | 52.29856 | 4.75377 | -1 ft | 10 kts | 238° |
| 2026-04-30 18:26 | 52.29832 | 4.75241 | 0 ft | 10 kts | 280° |
| 2026-04-30 18:26 | 52.29888 | 4.75105 | 1 ft | 8 kts | 312° |
| 2026-04-30 18:27 | 52.30046 | 4.74816 | 0 ft | 12 kts | 313° |
| 2026-04-30 18:27 | 52.30165 | 4.74593 | -5 ft | 17 kts | 311° |
| 2026-04-30 18:28 | 52.30385 | 4.74204 | -12 ft | 10 kts | 338° |
| 2026-04-30 18:28 | 52.30459 | 4.74194 | -11 ft | 11 kts | 5° |
| 2026-04-30 18:28 | 52.30672 | 4.74213 | -11 ft | 20 kts | 4° |
| 2026-04-30 18:29 | 52.30825 | 4.74228 | -8 ft | 23 kts | 2° |
| 2026-04-30 18:29 | 52.31333 | 4.74276 | -4 ft | 19 kts | 5° |
| 2026-04-30 18:30 | 52.31398 | 4.74537 | -6 ft | 17 kts | 87° |
| 2026-04-30 18:30 | 52.31495 | 4.74667 | -7 ft | 14 kts | 357° |
| 2026-04-30 18:31 | 52.31547 | 4.74663 | -8 ft | 4 kts | 358° |
| 2026-04-30 18:31 | 52.31561 | 4.74662 | -8 ft | 0 kts | 356° |
| 2026-04-30 18:33 | 52.31599 | 4.74658 | -8 ft | 10 kts | 359° |
| 2026-04-30 18:33 | 52.31665 | 4.74716 | -8 ft | 12 kts | 82° |
| 2026-04-30 18:34 | 52.31672 | 4.74908 | -7 ft | 38 kts | 88° |
| 2026-04-30 18:34 | 52.31737 | 4.76835 | -4 ft | 118 kts | 88° |
| 2026-04-30 18:34 | 52.31796 | 4.78328 | 38 ft | 139 kts | 83° |
| 2026-04-30 18:35 | 52.31871 | 4.79840 | 364 ft | 134 kts | 89° |
| 2026-04-30 18:35 | 52.31946 | 4.81385 | 674 ft | 136 kts | 86° |
| 2026-04-30 18:35 | 52.32027 | 4.82880 | 1059 ft | 131 kts | 87° |
| 2026-04-30 18:36 | 52.32203 | 4.86138 | 1987 ft | 162 kts | 90° |
| 2026-04-30 18:36 | 52.32305 | 4.87994 | 2752 ft | 173 kts | 90° |
| 2026-04-30 18:36 | 52.33315 | 4.92011 | 4019 ft | 228 kts | 61° |
| 2026-04-30 18:37 | 52.34274 | 4.94218 | 4590 ft | 254 kts | 60° |
| 2026-04-30 18:37 | 52.35321 | 4.96615 | 5495 ft | 265 kts | 59° |
| 2026-04-30 18:37 | 52.36393 | 4.99063 | 6617 ft | 267 kts | 59° |
| 2026-04-30 18:37 | 52.37442 | 5.01466 | 7718 ft | 267 kts | 59° |
| 2026-04-30 18:38 | 52.38510 | 5.03914 | 8774 ft | 268 kts | 59° |
| 2026-04-30 18:38 | 52.39595 | 5.06407 | 9708 ft | 272 kts | 59° |
| 2026-04-30 18:38 | 52.40680 | 5.08900 | 10592 ft | 276 kts | 59° |
| 2026-04-30 18:38 | 52.41812 | 5.11490 | 11399 ft | 285 kts | 56° |
| 2026-04-30 18:39 | 52.43362 | 5.13471 | 12058 ft | 297 kts | 27° |
| 2026-04-30 18:39 | 52.45442 | 5.14489 | 12368 ft | 323 kts | 19° |
| 2026-04-30 18:39 | 52.47646 | 5.15436 | 12584 ft | 330 kts | 19° |
| 2026-04-30 18:39 | 52.49844 | 5.16392 | 12786 ft | 330 kts | 19° |
| 2026-04-30 18:40 | 52.52054 | 5.17362 | 12961 ft | 332 kts | 19° |
| 2026-04-30 18:40 | 52.54330 | 5.18398 | 13491 ft | 345 kts | 24° |
| 2026-04-30 18:40 | 52.56269 | 5.20494 | 14413 ft | 331 kts | 53° |
| 2026-04-30 18:40 | 52.57397 | 5.23627 | 15420 ft | 322 kts | 65° |
| 2026-04-30 18:41 | 52.58605 | 5.26699 | 16352 ft | 325 kts | 57° |
| 2026-04-30 18:41 | 52.60014 | 5.29606 | 17157 ft | 329 kts | 53° |
| 2026-04-30 18:41 | 52.61506 | 5.32444 | 17903 ft | 334 kts | 52° |
| 2026-04-30 18:41 | 52.63056 | 5.35299 | 18597 ft | 340 kts | 51° |
| 2026-04-30 18:42 | 52.64651 | 5.38198 | 19322 ft | 345 kts | 51° |
| 2026-04-30 18:42 | 52.67915 | 5.44104 | 20742 ft | 354 kts | 50° |
| 2026-04-30 18:42 | 52.69557 | 5.47074 | 21438 ft | 358 kts | 50° |
| 2026-04-30 18:45 | 52.87044 | 5.78924 | 27389 ft | 392 kts | 49° |
| 2026-04-30 18:45 | 52.88880 | 5.82292 | 27964 ft | 396 kts | 49° |
| 2026-04-30 18:45 | 52.90722 | 5.85675 | 28534 ft | 400 kts | 49° |
| 2026-04-30 18:46 | 52.92578 | 5.89088 | 29108 ft | 403 kts | 49° |
| 2026-04-30 18:46 | 52.94447 | 5.92530 | 29680 ft | 406 kts | 49° |
| 2026-04-30 18:46 | 52.96351 | 5.96043 | 30247 ft | 409 kts | 49° |
| 2026-04-30 18:46 | 52.98282 | 5.99609 | 30794 ft | 413 kts | 49° |
| 2026-04-30 18:47 | 53.00209 | 6.03173 | 31333 ft | 416 kts | 48° |
| 2026-04-30 18:47 | 53.02134 | 6.06739 | 31846 ft | 419 kts | 48° |
| 2026-04-30 18:47 | 53.04092 | 6.10372 | 32369 ft | 422 kts | 48° |
| 2026-04-30 18:47 | 53.06037 | 6.13985 | 32963 ft | 422 kts | 48° |
| 2026-04-30 18:48 | 53.07989 | 6.17618 | 33645 ft | 420 kts | 48° |
| 2026-04-30 18:48 | 53.09911 | 6.21200 | 34323 ft | 418 kts | 48° |
| 2026-04-30 18:48 | 53.11846 | 6.24811 | 35039 ft | 415 kts | 48° |
| 2026-04-30 18:48 | 53.13754 | 6.28377 | 35705 ft | 411 kts | 48° |
| 2026-04-30 18:49 | 53.15648 | 6.31922 | 36299 ft | 410 kts | 48° |
| 2026-04-30 18:49 | 53.17523 | 6.35435 | 36683 ft | 412 kts | 48° |
| 2026-04-30 18:49 | 53.19420 | 6.38996 | 36988 ft | 409 kts | 48° |
| 2026-04-30 18:49 | 53.21294 | 6.42519 | 37297 ft | 408 kts | 48° |
| 2026-04-30 18:50 | 53.23193 | 6.46093 | 37373 ft | 418 kts | 48° |
| 2026-04-30 18:50 | 53.27079 | 6.53424 | 37378 ft | 425 kts | 48° |
| 2026-04-30 18:51 | 53.30975 | 6.60796 | 37377 ft | 423 kts | 48° |
| 2026-04-30 18:51 | 53.34850 | 6.68150 | 37384 ft | 423 kts | 49° |
| 2026-04-30 18:52 | 53.38725 | 6.75525 | 37394 ft | 423 kts | 48° |
| 2026-04-30 18:52 | 53.42581 | 6.82888 | 37392 ft | 423 kts | 48° |
| 2026-04-30 18:53 | 53.46445 | 6.90287 | 37398 ft | 423 kts | 48° |
| 2026-04-30 18:53 | 53.50313 | 6.97716 | 37409 ft | 423 kts | 48° |
| 2026-04-30 18:54 | 53.54149 | 7.05105 | 37408 ft | 423 kts | 48° |
| 2026-04-30 18:54 | 53.58004 | 7.12555 | 37412 ft | 423 kts | 48° |
| 2026-04-30 18:55 | 53.61844 | 7.19997 | 37412 ft | 423 kts | 48° |
| 2026-04-30 18:55 | 53.67603 | 7.31201 | 37412 ft | 424 kts | 48° |
| 2026-04-30 18:56 | 53.73370 | 7.42472 | 37407 ft | 424 kts | 48° |
| 2026-04-30 18:57 | 53.79117 | 7.53756 | 37407 ft | 423 kts | 48° |
| 2026-04-30 18:57 | 53.82928 | 7.61266 | 37407 ft | 423 kts | 48° |
| 2026-04-30 18:58 | 53.88658 | 7.72604 | 37413 ft | 424 kts | 49° |
| 2026-04-30 18:59 | 53.94393 | 7.84001 | 37414 ft | 425 kts | 49° |
| 2026-04-30 19:00 | 54.02000 | 7.99202 | 37417 ft | 424 kts | 49° |
| 2026-04-30 19:01 | 54.09603 | 8.14489 | 37421 ft | 424 kts | 48° |
| 2026-04-30 19:02 | 54.15281 | 8.25968 | 37424 ft | 424 kts | 49° |
| 2026-04-30 19:03 | 54.22825 | 8.41304 | 37426 ft | 424 kts | 48° |
| 2026-04-30 19:04 | 54.30372 | 8.56741 | 37429 ft | 423 kts | 48° |
| 2026-04-30 19:05 | 54.37888 | 8.72212 | 37429 ft | 424 kts | 49° |
| 2026-04-30 19:06 | 54.45358 | 8.87683 | 37423 ft | 423 kts | 49° |
| 2026-04-30 19:06 | 54.50980 | 8.99394 | 37423 ft | 424 kts | 49° |
| 2026-04-30 19:07 | 54.56562 | 9.11075 | 37420 ft | 423 kts | 49° |
| 2026-04-30 19:08 | 54.63936 | 9.26594 | 37420 ft | 418 kts | 49° |
| 2026-04-30 19:09 | 54.69456 | 9.38274 | 36438 ft | 419 kts | 49° |
| 2026-04-30 19:09 | 54.71281 | 9.42149 | 35984 ft | 419 kts | 49° |
| 2026-04-30 19:09 | 54.73104 | 9.46024 | 35526 ft | 420 kts | 49° |
| 2026-04-30 19:10 | 54.76781 | 9.53860 | 34615 ft | 422 kts | 48° |
| 2026-04-30 19:10 | 54.80463 | 9.61734 | 33700 ft | 422 kts | 48° |
| 2026-04-30 19:11 | 54.82308 | 9.65686 | 33238 ft | 422 kts | 49° |
| 2026-04-30 19:11 | 54.85987 | 9.73590 | 32309 ft | 422 kts | 49° |
| 2026-04-30 19:11 | 54.87818 | 9.77533 | 31844 ft | 422 kts | 49° |
| 2026-04-30 19:12 | 54.89628 | 9.81436 | 31384 ft | 422 kts | 49° |
| 2026-04-30 19:12 | 54.91449 | 9.85373 | 30918 ft | 418 kts | 49° |
| 2026-04-30 19:12 | 54.93260 | 9.89291 | 30445 ft | 414 kts | 49° |
| 2026-04-30 19:13 | 54.96818 | 9.97010 | 29525 ft | 407 kts | 49° |
| 2026-04-30 19:13 | 55.00333 | 10.04657 | 28629 ft | 402 kts | 49° |
| 2026-04-30 19:13 | 55.02060 | 10.08422 | 28188 ft | 398 kts | 49° |
| 2026-04-30 19:14 | 55.03755 | 10.12126 | 27755 ft | 396 kts | 49° |
| 2026-04-30 19:14 | 55.05473 | 10.15883 | 27316 ft | 394 kts | 49° |
| 2026-04-30 19:14 | 55.07149 | 10.19556 | 26886 ft | 391 kts | 49° |
| 2026-04-30 19:14 | 55.08845 | 10.23277 | 26453 ft | 389 kts | 49° |
| 2026-04-30 19:15 | 55.10504 | 10.26922 | 26031 ft | 386 kts | 49° |
| 2026-04-30 19:15 | 55.13810 | 10.34203 | 25186 ft | 381 kts | 49° |
| 2026-04-30 19:15 | 55.15449 | 10.37821 | 24766 ft | 379 kts | 49° |
| 2026-04-30 19:16 | 55.17060 | 10.41380 | 24355 ft | 376 kts | 49° |
| 2026-04-30 19:16 | 55.18690 | 10.44989 | 23936 ft | 374 kts | 49° |
| 2026-04-30 19:16 | 55.21876 | 10.52057 | 23120 ft | 369 kts | 49° |
| 2026-04-30 19:17 | 55.23453 | 10.55565 | 22715 ft | 367 kts | 49° |
| 2026-04-30 19:17 | 55.26585 | 10.62544 | 21910 ft | 361 kts | 50° |
| 2026-04-30 19:17 | 55.27752 | 10.66404 | 21528 ft | 363 kts | 68° |
| 2026-04-30 19:18 | 55.29046 | 10.73382 | 20850 ft | 361 kts | 70° |
| 2026-04-30 19:18 | 55.30009 | 10.78923 | 20324 ft | 358 kts | 71° |
| 2026-04-30 19:18 | 55.30724 | 10.83084 | 19930 ft | 355 kts | 71° |
| 2026-04-30 19:19 | 55.31429 | 10.87216 | 19540 ft | 353 kts | 71° |
| 2026-04-30 19:19 | 55.32120 | 10.91277 | 19158 ft | 351 kts | 71° |
| 2026-04-30 19:19 | 55.33498 | 10.99445 | 18393 ft | 347 kts | 71° |
| 2026-04-30 19:20 | 55.33943 | 11.02115 | 18141 ft | 345 kts | 71° |
| 2026-04-30 19:20 | 55.34835 | 11.07478 | 17636 ft | 342 kts | 71° |
| 2026-04-30 19:20 | 55.36146 | 11.15384 | 16885 ft | 337 kts | 71° |
| 2026-04-30 19:21 | 55.36801 | 11.19348 | 16513 ft | 334 kts | 71° |
| 2026-04-30 19:21 | 55.37969 | 11.27144 | 16477 ft | 334 kts | 83° |
| 2026-04-30 19:22 | 55.38795 | 11.35125 | 16623 ft | 335 kts | 71° |
| 2026-04-30 19:22 | 55.40808 | 11.46936 | 16762 ft | 336 kts | 71° |
| 2026-04-30 19:23 | 55.42780 | 11.58693 | 16895 ft | 336 kts | 71° |
| 2026-04-30 19:24 | 55.44095 | 11.66634 | 16987 ft | 338 kts | 73° |
| 2026-04-30 19:24 | 55.44163 | 11.70729 | 17037 ft | 344 kts | 95° |
| 2026-04-30 19:24 | 55.43791 | 11.79073 | 17112 ft | 344 kts | 88° |
| 2026-04-30 19:25 | 55.43710 | 11.91010 | 14922 ft | 318 kts | 87° |
| 2026-04-30 19:26 | 55.43688 | 11.98554 | 12873 ft | 304 kts | 87° |
| 2026-04-30 19:26 | 55.43666 | 12.05750 | 10930 ft | 291 kts | 87° |
| 2026-04-30 19:26 | 55.43654 | 12.09234 | 9997 ft | 286 kts | 88° |
| 2026-04-30 19:27 | 55.43627 | 12.16019 | 8193 ft | 277 kts | 88° |
| 2026-04-30 19:27 | 55.43598 | 12.22618 | 6402 ft | 268 kts | 88° |
| 2026-04-30 19:28 | 55.43582 | 12.25832 | 5868 ft | 252 kts | 88° |
| 2026-04-30 19:28 | 55.43550 | 12.31601 | 5079 ft | 221 kts | 87° |
| 2026-04-30 19:29 | 55.44007 | 12.36680 | 4268 ft | 206 kts | 48° |
| 2026-04-30 19:29 | 55.44923 | 12.38483 | 4150 ft | 190 kts | 40° |
| 2026-04-30 19:30 | 55.47745 | 12.42723 | 3770 ft | 176 kts | 39° |
| 2026-04-30 19:30 | 55.49480 | 12.45382 | 3608 ft | 148 kts | 39° |
| 2026-04-30 19:31 | 55.51145 | 12.47943 | 2944 ft | 168 kts | 38° |
| 2026-04-30 19:31 | 55.52025 | 12.49282 | 2560 ft | 167 kts | 37° |
| 2026-04-30 19:31 | 55.53728 | 12.51901 | 1742 ft | 158 kts | 36° |
| 2026-04-30 19:32 | 55.54554 | 12.53180 | 1347 ft | 159 kts | 37° |
| 2026-04-30 19:32 | 55.55353 | 12.54401 | 1059 ft | 143 kts | 37° |
| 2026-04-30 19:32 | 55.56058 | 12.55490 | 848 ft | 127 kts | 37° |
| 2026-04-30 19:32 | 55.56694 | 12.56465 | 682 ft | 120 kts | 37° |
| 2026-04-30 19:33 | 55.57328 | 12.57438 | 537 ft | 121 kts | 37° |
| 2026-04-30 19:33 | 55.57961 | 12.58403 | 386 ft | 120 kts | 37° |
| 2026-04-30 19:33 | 55.58588 | 12.59372 | 252 ft | 122 kts | 37° |
| 2026-04-30 19:33 | 55.59226 | 12.60361 | 71 ft | 120 kts | 38° |
| 2026-04-30 19:34 | 55.59816 | 12.61266 | 11 ft | 97 kts | 41° |
| 2026-04-30 19:34 | 55.60219 | 12.61901 | 12 ft | 57 kts | 40° |
| 2026-04-30 19:34 | 55.60617 | 12.62336 | 15 ft | 25 kts | 12° |
| 2026-04-30 19:35 | 55.60784 | 12.62408 | 17 ft | 24 kts | 27° |
| 2026-04-30 19:35 | 55.60910 | 12.62588 | 19 ft | 22 kts | 40° |
| 2026-04-30 19:35 | 55.61028 | 12.62769 | 22 ft | 21 kts | 40° |
| 2026-04-30 19:35 | 55.61142 | 12.62946 | 22 ft | 22 kts | 40° |
| 2026-04-30 19:36 | 55.61262 | 12.63132 | 20 ft | 23 kts | 40° |
| 2026-04-30 19:36 | 55.61382 | 12.63318 | 21 ft | 23 kts | 41° |
| 2026-04-30 19:36 | 55.61621 | 12.63696 | 23 ft | 22 kts | 39° |
| 2026-04-30 19:37 | 55.61746 | 12.63880 | 21 ft | 23 kts | 41° |
| 2026-04-30 19:37 | 55.61863 | 12.64059 | 19 ft | 20 kts | 33° |
| 2026-04-30 19:37 | 55.61991 | 12.64169 | 18 ft | 13 kts | 26° |
| 2026-04-30 19:37 | 55.62071 | 12.64245 | 15 ft | 10 kts | 21° |
| 2026-04-30 19:38 | 55.62117 | 12.64277 | 14 ft | 5 kts | 21° |
| 2026-04-30 19:38 | 55.62139 | 12.64294 | 14 ft | 0 kts | 25° |
| 2026-04-30 19:38 | 55.62144 | 12.64299 | 14 ft | 1 kts | 25° |
| 2026-04-30 19:38 | 55.62156 | 12.64309 | 14 ft | 3 kts | 26° |
| 2026-04-30 19:39 | 55.62190 | 12.64340 | 14 ft | 9 kts | 25° |
| 2026-04-30 19:39 | 55.62275 | 12.64395 | 14 ft | 16 kts | 14° |
| 2026-04-30 19:39 | 55.62391 | 12.64450 | 15 ft | 17 kts | 14° |
| 2026-04-30 19:39 | 55.62471 | 12.64485 | 17 ft | 7 kts | 1° |
| 2026-04-30 19:40 | 55.62511 | 12.64435 | 17 ft | 8 kts | 304° |
| 2026-04-30 19:40 | 55.62548 | 12.64339 | 16 ft | 10 kts | 303° |
| 2026-04-30 19:40 | 55.62587 | 12.64232 | 16 ft | 10 kts | 302° |
| 2026-04-30 19:40 | 55.62626 | 12.64128 | 16 ft | 7 kts | 303° |
| 2026-04-30 19:41 | 55.62668 | 12.64130 | 17 ft | 6 kts | 30° |
| 2026-04-30 19:41 | 55.62698 | 12.64162 | 18 ft | 2 kts | 32° |
| 2026-04-30 19:41 | 55.62700 | 12.64164 | 18 ft | 0 kts | 33° |
| 2026-04-30 19:41 | 55.62701 | 12.64166 | 18 ft | 0 kts | 33° |